Time;durP1;ratioP1;P1;durP2;ratioP2;P2;SDS_P1;SDS_P2;PMS_P1;PMS_P2;Temp;Humidity;BMP_temperature;BMP_pressure;BME280_temperature;BME280_humidity;BME280_pressure;Samples;Min_cycle;Max_cycle;Signal;HPM_P1;HPM_P2
2022/04/10 00:00:36;;;;;;;;;;;20.20;43.10;;;;;;5054563;28;19905;-75
2022/04/10 00:03:02;;;;;;;;;;;20.20;42.90;;;;;;5054922;28;20277;-75
2022/04/10 00:05:28;;;;;;;;;;;20.20;42.90;;;;;;5054780;28;19912;-76
2022/04/10 00:07:53;;;;;;;;;;;20.10;42.70;;;;;;5054714;28;19909;-75
2022/04/10 00:10:19;;;;;;;;;;;20.10;42.70;;;;;;5053239;28;19905;-75
2022/04/10 00:12:44;;;;;;;;;;;20.10;42.90;;;;;;5055904;28;19912;-75
2022/04/10 00:15:11;;;;;;;;;;;20.10;43.10;;;;;;5054647;28;20353;-75
2022/04/10 00:17:37;;;;;;;;;;;20.10;42.90;;;;;;5054726;28;19961;-75
2022/04/10 00:20:03;;;;;;;;;;;20.10;43.00;;;;;;5054222;28;20003;-74
2022/04/10 00:22:28;;;;;;;;;;;20.10;43.00;;;;;;5054335;28;19912;-76
2022/04/10 00:24:54;;;;;;;;;;;20.10;43.30;;;;;;5054483;28;19911;-75
2022/04/10 00:27:19;;;;;;;;;;;20.10;43.20;;;;;;5054321;28;19909;-76
2022/04/10 00:29:46;;;;;;;;;;;20.10;43.10;;;;;;5053998;28;19963;-75
2022/04/10 00:32:11;;;;;;;;;;;20.00;43.10;;;;;;5054323;28;19955;-74
2022/04/10 00:34:37;;;;;;;;;;;20.00;43.50;;;;;;5054375;28;20429;-75
2022/04/10 00:37:02;;;;;;;;;;;20.10;43.60;;;;;;5054266;28;20350;-76
2022/04/10 00:39:28;;;;;;;;;;;20.00;43.60;;;;;;5053798;28;19912;-76
2022/04/10 00:41:54;;;;;;;;;;;20.00;43.60;;;;;;5054123;28;19904;-76
2022/04/10 00:44:20;;;;;;;;;;;20.00;43.50;;;;;;5054251;28;19904;-76
2022/04/10 00:46:45;;;;;;;;;;;20.00;43.80;;;;;;5053985;28;19908;-75
2022/04/10 00:49:11;;;;;;;;;;;20.00;43.40;;;;;;5053740;28;20309;-73
2022/04/10 00:51:46;;;;;;;;;;;20.00;44.50;;;;;;5053815;28;20281;-73
2022/04/10 00:54:19;;;;;;;;;;;20.00;44.80;;;;;;5054010;28;20300;-74
2022/04/10 00:56:45;;;;;;;;;;;20.00;44.90;;;;;;5054076;28;19928;-72
2022/04/10 00:59:11;;;;;;;;;;;20.00;45.20;;;;;;5053504;28;20349;-72
2022/04/10 01:01:37;;;;;;;;;;;20.00;45.10;;;;;;5053710;28;19905;-74
2022/04/10 01:04:03;;;;;;;;;;;20.00;45.20;;;;;;5053773;28;19904;-75
2022/04/10 01:06:30;;;;;;;;;;;20.00;45.20;;;;;;5053639;28;19909;-75
2022/04/10 01:08:56;;;;;;;;;;;20.00;44.90;;;;;;5053305;28;19905;-75
2022/04/10 01:11:22;;;;;;;;;;;20.00;45.00;;;;;;5053513;28;19912;-75
2022/04/10 01:13:48;;;;;;;;;;;19.90;45.10;;;;;;5053471;28;20269;-75
2022/04/10 01:16:13;;;;;;;;;;;19.90;44.80;;;;;;5055007;28;20342;-75
2022/04/10 01:18:40;;;;;;;;;;;19.90;45.00;;;;;;5053144;28;19966;-75
2022/04/10 01:21:07;;;;;;;;;;;19.90;44.90;;;;;;5053240;28;19905;-74
2022/04/10 01:23:32;;;;;;;;;;;19.90;45.00;;;;;;5053067;28;19958;-74
2022/04/10 01:25:58;;;;;;;;;;;19.90;45.70;;;;;;5053469;28;19909;-75
2022/04/10 01:28:23;;;;;;;;;;;19.90;44.80;;;;;;5053098;28;20357;-77
2022/04/10 01:30:49;;;;;;;;;;;19.90;45.10;;;;;;5052893;28;19908;-76
2022/04/10 01:33:14;;;;;;;;;;;19.90;45.00;;;;;;5053109;28;19952;-74
2022/04/10 01:35:40;;;;;;;;;;;19.90;44.90;;;;;;5052941;28;19912;-75
2022/04/10 01:38:06;;;;;;;;;;;19.90;44.80;;;;;;5053005;28;19904;-76
2022/04/10 01:40:31;;;;;;;;;;;19.90;44.90;;;;;;5052483;28;19905;-76
2022/04/10 01:42:57;;;;;;;;;;;19.90;44.80;;;;;;5053032;28;19911;-75
2022/04/10 01:45:23;;;;;;;;;;;19.90;44.90;;;;;;5052936;28;19950;-73
2022/04/10 01:47:52;;;;;;;;;;;19.90;45.10;;;;;;5052753;28;19908;-74
2022/04/10 01:50:18;;;;;;;;;;;19.90;45.30;;;;;;5052530;28;19999;-74
2022/04/10 01:52:44;;;;;;;;;;;19.90;45.20;;;;;;5052501;28;19913;-73
2022/04/10 01:55:09;;;;;;;;;;;19.90;45.30;;;;;;5052741;28;19911;-74
2022/04/10 01:57:35;;;;;;;;;;;19.90;45.10;;;;;;5052680;28;19905;-74
2022/04/10 02:00:00;;;;;;;;;;;19.90;45.20;;;;;;5053691;28;20008;-74
2022/04/10 02:02:26;;;;;;;;;;;19.90;45.10;;;;;;5052538;28;19904;-74
2022/04/10 02:04:51;;;;;;;;;;;19.90;45.20;;;;;;5052531;28;19947;-74
2022/04/10 02:07:17;;;;;;;;;;;19.90;45.00;;;;;;5052572;28;19909;-75
2022/04/10 02:09:43;;;;;;;;;;;20.00;44.20;;;;;;5052035;28;20329;-74
2022/04/10 02:12:09;;;;;;;;;;;20.00;44.00;;;;;;5052398;28;19913;-74
2022/04/10 02:14:34;;;;;;;;;;;20.00;43.90;;;;;;5052458;28;19904;-75
2022/04/10 02:17:00;;;;;;;;;;;20.00;43.90;;;;;;5052456;28;19966;-75
2022/04/10 02:19:25;;;;;;;;;;;20.10;44.00;;;;;;5051969;28;19912;-76
2022/04/10 02:21:51;;;;;;;;;;;20.10;43.90;;;;;;5052100;28;19904;-76
2022/04/10 02:24:16;;;;;;;;;;;20.10;43.70;;;;;;5052311;28;19912;-75
2022/04/10 02:26:42;;;;;;;;;;;20.10;43.60;;;;;;5052209;28;19912;-76
2022/04/10 02:29:08;;;;;;;;;;;20.10;43.70;;;;;;5051924;28;20277;-76
2022/04/10 02:31:33;;;;;;;;;;;20.10;43.60;;;;;;5052173;28;19911;-76
2022/04/10 02:34:00;;;;;;;;;;;20.10;43.70;;;;;;5051582;28;19905;-77
2022/04/10 02:36:25;;;;;;;;;;;20.10;43.80;;;;;;5052125;28;19905;-75
2022/04/10 02:38:51;;;;;;;;;;;20.10;43.60;;;;;;5051759;28;19905;-76
2022/04/10 02:41:16;;;;;;;;;;;20.10;43.60;;;;;;5051849;28;20358;-75
2022/04/10 02:43:42;;;;;;;;;;;20.10;43.70;;;;;;5051851;28;19913;-75
2022/04/10 02:46:07;;;;;;;;;;;20.10;43.50;;;;;;5051874;28;19932;-75
2022/04/10 02:48:33;;;;;;;;;;;20.10;43.60;;;;;;5051631;28;19915;-75
2022/04/10 02:50:59;;;;;;;;;;;20.10;43.80;;;;;;5051760;28;19901;-74
2022/04/10 02:53:25;;;;;;;;;;;20.10;43.70;;;;;;5051949;28;20334;-74
2022/04/10 02:55:50;;;;;;;;;;;20.10;43.50;;;;;;5051969;28;19905;-75
2022/04/10 02:58:16;;;;;;;;;;;20.10;43.90;;;;;;5051977;28;19919;-73
2022/04/10 03:00:41;;;;;;;;;;;20.10;43.60;;;;;;5051382;28;19909;-73
2022/04/10 03:03:07;;;;;;;;;;;20.10;43.80;;;;;;5051785;28;19999;-72
2022/04/10 03:05:32;;;;;;;;;;;20.10;43.60;;;;;;5051896;28;19904;-72
2022/04/10 03:07:58;;;;;;;;;;;20.10;43.80;;;;;;5051907;28;19915;-73
2022/04/10 03:10:23;;;;;;;;;;;20.10;43.70;;;;;;5051528;28;19931;-72
2022/04/10 03:12:49;;;;;;;;;;;20.10;43.80;;;;;;5051673;28;19905;-73
2022/04/10 03:15:15;;;;;;;;;;;20.10;43.70;;;;;;5051873;28;20338;-73
2022/04/10 03:17:40;;;;;;;;;;;20.00;43.70;;;;;;5051884;28;19909;-73
2022/04/10 03:20:06;;;;;;;;;;;20.00;43.70;;;;;;5051331;28;19905;-73
2022/04/10 03:22:32;;;;;;;;;;;20.00;43.70;;;;;;5051636;28;20353;-72
2022/04/10 03:24:57;;;;;;;;;;;20.00;43.60;;;;;;5051530;28;19911;-73
2022/04/10 03:27:23;;;;;;;;;;;20.00;43.80;;;;;;5051564;28;19909;-73
2022/04/10 03:29:48;;;;;;;;;;;20.00;43.70;;;;;;5051272;28;19905;-72
2022/04/10 03:32:14;;;;;;;;;;;20.00;43.80;;;;;;5051665;28;19974;-73
2022/04/10 03:34:40;;;;;;;;;;;20.00;43.80;;;;;;5051473;28;19905;-72
2022/04/10 03:37:05;;;;;;;;;;;20.00;44.20;;;;;;5051436;28;20303;-73
2022/04/10 03:39:31;;;;;;;;;;;20.00;44.10;;;;;;5051154;28;19916;-73
2022/04/10 03:41:56;;;;;;;;;;;20.00;44.10;;;;;;5051587;28;19962;-73
2022/04/10 03:44:22;;;;;;;;;;;20.00;44.10;;;;;;5051581;28;20511;-72
2022/04/10 03:46:47;;;;;;;;;;;19.90;44.20;;;;;;5055048;28;19908;-72
2022/04/10 03:49:13;;;;;;;;;;;19.90;44.00;;;;;;5054826;28;19912;-72
2022/04/10 03:51:38;;;;;;;;;;;19.90;44.60;;;;;;5054943;28;19985;-73
2022/04/10 03:54:04;;;;;;;;;;;19.90;44.70;;;;;;5055040;28;20288;-74
2022/04/10 03:56:29;;;;;;;;;;;19.90;44.60;;;;;;5055309;28;19905;-73
2022/04/10 03:58:55;;;;;;;;;;;19.90;44.60;;;;;;5054680;28;20007;-74
2022/04/10 04:01:20;;;;;;;;;;;19.90;44.70;;;;;;5055039;28;19905;-73
2022/04/10 04:03:46;;;;;;;;;;;19.90;44.80;;;;;;5054947;28;19927;-75
2022/04/10 04:06:11;;;;;;;;;;;19.90;44.70;;;;;;5054864;28;20003;-76
2022/04/10 04:08:38;;;;;;;;;;;19.90;44.70;;;;;;5054507;28;19915;-75
2022/04/10 04:11:03;;;;;;;;;;;19.90;44.90;;;;;;5054588;28;19962;-74
2022/04/10 04:13:29;;;;;;;;;;;19.90;45.00;;;;;;5054896;28;20378;-74
2022/04/10 04:15:54;;;;;;;;;;;19.90;44.80;;;;;;5054636;28;20342;-74
2022/04/10 04:18:20;;;;;;;;;;;19.90;44.80;;;;;;5054689;28;19905;-74
2022/04/10 04:20:45;;;;;;;;;;;19.90;44.90;;;;;;5054414;28;19905;-73
2022/04/10 04:23:11;;;;;;;;;;;19.90;44.80;;;;;;5054528;28;19905;-75
2022/04/10 04:25:36;;;;;;;;;;;19.90;44.90;;;;;;5054666;28;19927;-75
2022/04/10 04:28:02;;;;;;;;;;;19.90;44.60;;;;;;5054345;28;19958;-75
2022/04/10 04:30:28;;;;;;;;;;;19.90;44.60;;;;;;5054084;28;19954;-75
2022/04/10 04:32:56;;;;;;;;;;;19.90;45.00;;;;;;5054266;28;19912;-76
2022/04/10 04:35:22;;;;;;;;;;;19.80;44.90;;;;;;5054364;28;19941;-75
2022/04/10 04:37:47;;;;;;;;;;;19.90;44.90;;;;;;5054291;28;20349;-74
2022/04/10 04:40:15;;;;;;;;;;;19.80;44.80;;;;;;5053750;28;20265;-75
2022/04/10 04:42:41;;;;;;;;;;;19.80;44.90;;;;;;5054162;28;19998;-75
2022/04/10 04:45:06;;;;;;;;;;;19.90;44.80;;;;;;5054152;28;20350;-76
2022/04/10 04:47:32;;;;;;;;;;;19.90;44.80;;;;;;5053897;28;20345;-73
2022/04/10 04:49:57;;;;;;;;;;;19.80;44.90;;;;;;5053583;28;19905;-76
2022/04/10 04:52:23;;;;;;;;;;;19.80;45.60;;;;;;5053861;28;19917;-76
2022/04/10 04:54:48;;;;;;;;;;;19.80;45.20;;;;;;5054068;28;19912;-76
2022/04/10 04:57:14;;;;;;;;;;;19.80;45.20;;;;;;5053202;28;20031;-76
2022/04/10 04:59:39;;;;;;;;;;;19.80;45.20;;;;;;5053539;28;19905;-76
2022/04/10 05:02:05;;;;;;;;;;;19.80;45.10;;;;;;5053817;28;19905;-76
2022/04/10 05:04:30;;;;;;;;;;;19.80;45.20;;;;;;5053919;28;20255;-76
2022/04/10 05:06:56;;;;;;;;;;;19.80;45.30;;;;;;5053736;28;19909;-73
2022/04/10 05:09:21;;;;;;;;;;;19.90;45.30;;;;;;5053364;28;19909;-73
2022/04/10 05:11:47;;;;;;;;;;;19.80;45.20;;;;;;5054861;28;19905;-73
2022/04/10 05:14:12;;;;;;;;;;;19.90;45.30;;;;;;5061714;28;19916;-73
2022/04/10 05:16:38;;;;;;;;;;;19.80;45.60;;;;;;5066793;28;19908;-72
2022/04/10 05:19:04;;;;;;;;;;;19.80;45.10;;;;;;5064604;28;20004;-72
2022/04/10 05:21:30;;;;;;;;;;;19.90;45.40;;;;;;5058751;28;19915;-70
2022/04/10 05:23:56;;;;;;;;;;;19.90;46.70;;;;;;5068120;28;19908;-71
2022/04/10 05:26:22;;;;;;;;;;;19.90;46.10;;;;;;5054610;28;19958;-70
2022/04/10 05:28:47;;;;;;;;;;;19.90;45.40;;;;;;5063061;28;19904;-72
2022/04/10 05:31:13;;;;;;;;;;;19.90;46.10;;;;;;5072988;28;19953;-71
2022/04/10 05:33:39;;;;;;;;;;;19.90;46.20;;;;;;5073273;28;19908;-73
2022/04/10 05:36:04;;;;;;;;;;;19.90;46.00;;;;;;5073022;28;20378;-74
2022/04/10 05:38:30;;;;;;;;;;;19.90;46.40;;;;;;5072818;28;20257;-74
2022/04/10 05:40:58;;;;;;;;;;;19.90;46.00;;;;;;5064216;28;20284;-74
2022/04/10 05:43:23;;;;;;;;;;;19.90;46.00;;;;;;5052932;28;19908;-73
2022/04/10 05:45:49;;;;;;;;;;;20.00;46.10;;;;;;5052989;28;19904;-72
2022/04/10 05:48:15;;;;;;;;;;;20.00;46.10;;;;;;5052876;28;20358;-71
2022/04/10 05:50:41;;;;;;;;;;;20.00;46.00;;;;;;5054781;28;19947;-72
2022/04/10 05:53:07;;;;;;;;;;;20.00;45.80;;;;;;5062745;28;20003;-72
2022/04/10 05:55:32;;;;;;;;;;;20.10;46.00;;;;;;5066917;28;19965;-71
2022/04/10 05:57:58;;;;;;;;;;;20.10;45.60;;;;;;5055822;28;20098;-71
2022/04/10 06:00:24;;;;;;;;;;;20.10;45.70;;;;;;5054363;28;19905;-70
2022/04/10 06:02:50;;;;;;;;;;;20.10;45.40;;;;;;5061976;28;19952;-72
2022/04/10 06:05:17;;;;;;;;;;;20.10;45.50;;;;;;5059287;28;19954;-73
2022/04/10 06:07:43;;;;;;;;;;;20.10;45.40;;;;;;5057738;28;19927;-71
2022/04/10 06:10:08;;;;;;;;;;;20.10;45.30;;;;;;5058456;28;19908;-74
2022/04/10 06:12:34;;;;;;;;;;;20.20;45.00;;;;;;5064666;28;19908;-73
2022/04/10 06:15:00;;;;;;;;;;;20.20;45.40;;;;;;5063796;28;19956;-72
2022/04/10 06:17:26;;;;;;;;;;;20.20;45.30;;;;;;5064035;28;19908;-72
2022/04/10 06:19:53;;;;;;;;;;;20.20;45.00;;;;;;5065813;28;19915;-72
2022/04/10 06:22:19;;;;;;;;;;;20.20;45.80;;;;;;5057593;28;19909;-72
2022/04/10 06:24:45;;;;;;;;;;;20.20;45.00;;;;;;5061829;28;20415;-72
2022/04/10 06:27:11;;;;;;;;;;;20.20;45.00;;;;;;5065321;28;19981;-72
2022/04/10 06:29:36;;;;;;;;;;;20.20;45.40;;;;;;5063742;28;20384;-75
2022/04/10 06:32:02;;;;;;;;;;;20.20;45.00;;;;;;5063870;28;20369;-76
2022/04/10 06:34:28;;;;;;;;;;;20.20;45.10;;;;;;5063794;28;19917;-76
2022/04/10 06:36:54;;;;;;;;;;;20.30;45.20;;;;;;5063856;28;19917;-76
2022/04/10 06:39:20;;;;;;;;;;;20.30;45.00;;;;;;5061350;28;19911;-75
2022/04/10 06:41:45;;;;;;;;;;;20.30;45.20;;;;;;5052020;28;19909;-75
2022/04/10 06:44:11;;;;;;;;;;;20.30;45.10;;;;;;5069130;28;19940;-73
2022/04/10 06:46:37;;;;;;;;;;;20.20;43.90;;;;;;5058905;28;20288;-76
2022/04/10 06:49:02;;;;;;;;;;;20.20;45.00;;;;;;5069193;28;19909;-76
2022/04/10 06:51:28;;;;;;;;;;;20.30;45.80;;;;;;5067637;28;19913;-75
2022/04/10 06:53:54;;;;;;;;;;;20.30;45.40;;;;;;5069394;28;20238;-75
2022/04/10 06:56:20;;;;;;;;;;;20.30;45.40;;;;;;5068014;28;20353;-75
2022/04/10 06:58:45;;;;;;;;;;;20.40;45.30;;;;;;5059575;28;19904;-71
2022/04/10 07:01:11;;;;;;;;;;;20.40;45.60;;;;;;5054895;28;19908;-74
2022/04/10 07:03:36;;;;;;;;;;;20.40;45.80;;;;;;5071929;28;20403;-74
2022/04/10 07:06:02;;;;;;;;;;;20.50;45.40;;;;;;5071849;28;19915;-73
2022/04/10 07:08:28;;;;;;;;;;;20.50;45.20;;;;;;5058367;28;19909;-75
2022/04/10 07:10:54;;;;;;;;;;;20.60;45.50;;;;;;5071154;28;19977;-75
2022/04/10 07:13:21;;;;;;;;;;;20.60;44.70;;;;;;5068100;28;20031;-74
2022/04/10 07:15:50;;;;;;;;;;;20.70;44.70;;;;;;5057429;28;19904;-74
2022/04/10 07:18:16;;;;;;;;;;;20.70;45.20;;;;;;5062997;28;19909;-71
2022/04/10 07:20:42;;;;;;;;;;;20.70;45.40;;;;;;5065386;28;20399;-73
2022/04/10 07:25:53;;;;;;;;;;;20.80;45.00;;;;;;5057427;28;19911;-71
2022/04/10 07:28:21;;;;;;;;;;;20.80;45.60;;;;;;5058809;28;19924;-71
2022/04/10 07:30:48;;;;;;;;;;;20.90;44.70;;;;;;5058836;28;20357;-74
2022/04/10 07:33:14;;;;;;;;;;;20.90;45.70;;;;;;5062025;28;20010;-74
2022/04/10 07:35:43;;;;;;;;;;;21.00;45.70;;;;;;5062298;28;19908;-73
2022/04/10 07:38:11;;;;;;;;;;;21.00;45.40;;;;;;5066877;28;19991;-73
2022/04/10 07:40:41;;;;;;;;;;;21.10;45.20;;;;;;5063446;28;19922;-74
2022/04/10 07:43:06;;;;;;;;;;;21.10;45.00;;;;;;5044587;28;19912;-73
2022/04/10 07:48:16;;;;;;;;;;;21.10;45.10;;;;;;5063119;28;19920;-73
2022/04/10 07:50:43;;;;;;;;;;;21.10;44.40;;;;;;5064735;28;19912;-74
2022/04/10 07:53:09;;;;;;;;;;;21.20;44.60;;;;;;5067487;28;20003;-74
2022/04/10 07:55:34;;;;;;;;;;;21.20;44.40;;;;;;5063890;28;20027;-73
2022/04/10 07:58:00;;;;;;;;;;;21.20;44.60;;;;;;5060996;28;19909;-73
2022/04/10 08:00:31;;;;;;;;;;;21.30;44.60;;;;;;5063923;28;20006;-72
2022/04/10 08:03:01;;;;;;;;;;;21.30;44.00;;;;;;5062027;28;19908;-73
2022/04/10 08:05:27;;;;;;;;;;;21.40;43.90;;;;;;5079905;28;19909;-72
2022/04/10 08:07:53;;;;;;;;;;;21.40;44.10;;;;;;5062316;28;19964;-75
2022/04/10 08:10:19;;;;;;;;;;;21.50;44.00;;;;;;5065831;28;19908;-72
2022/04/10 08:12:45;;;;;;;;;;;21.70;44.00;;;;;;5061112;28;19912;-69
2022/04/10 08:15:11;;;;;;;;;;;22.00;44.10;;;;;;5062169;28;20011;-75
2022/04/10 08:17:38;;;;;;;;;;;22.10;44.00;;;;;;5064239;28;19920;-75
2022/04/10 08:20:04;;;;;;;;;;;22.20;43.40;;;;;;5062350;28;19943;-76
2022/04/10 08:22:34;;;;;;;;;;;22.20;43.60;;;;;;5064924;28;20415;-75
2022/04/10 08:25:00;;;;;;;;;;;22.20;42.00;;;;;;5060498;28;19909;-76
2022/04/10 08:27:26;;;;;;;;;;;22.10;39.70;;;;;;5065197;28;19913;-76
2022/04/10 08:29:52;;;;;;;;;;;21.90;39.20;;;;;;5057989;28;19909;-76
2022/04/10 08:32:18;;;;;;;;;;;21.80;39.20;;;;;;5067596;28;19909;-75
2022/04/10 08:34:43;;;;;;;;;;;21.90;39.50;;;;;;5065100;28;20030;-75
2022/04/10 08:37:09;;;;;;;;;;;21.90;40.10;;;;;;5065016;28;19908;-75
2022/04/10 08:39:35;;;;;;;;;;;22.00;41.20;;;;;;5063322;28;19908;-75
2022/04/10 08:42:02;;;;;;;;;;;22.10;39.50;;;;;;5068592;28;20053;-76
2022/04/10 08:44:29;;;;;;;;;;;22.00;39.80;;;;;;5070242;28;19953;-74
2022/04/10 08:46:55;;;;;;;;;;;22.10;41.40;;;;;;5079544;28;20011;-72
2022/04/10 08:49:24;;;;;;;;;;;22.30;41.90;;;;;;5066670;28;19955;-74
2022/04/10 08:51:50;;;;;;;;;;;22.30;42.00;;;;;;5061868;28;19912;-78
2022/04/10 08:54:18;;;;;;;;;;;22.30;42.30;;;;;;5065154;28;19908;-78
2022/04/10 08:56:44;;;;;;;;;;;22.20;41.10;;;;;;5063512;28;19912;-76
2022/04/10 08:59:09;;;;;;;;;;;22.20;40.80;;;;;;5053608;28;20459;-77
2022/04/10 09:01:35;;;;;;;;;;;22.20;42.10;;;;;;5062359;28;19909;-77
2022/04/10 09:04:00;;;;;;;;;;;22.20;41.70;;;;;;5061674;28;19909;-78
2022/04/10 09:06:26;;;;;;;;;;;22.10;41.50;;;;;;5064897;28;20345;-78
2022/04/10 09:08:58;;;;;;;;;;;22.00;40.60;;;;;;5066395;28;19908;-77
2022/04/10 09:11:29;;;;;;;;;;;22.00;40.40;;;;;;5059851;28;19908;-77
2022/04/10 09:13:58;;;;;;;;;;;22.00;40.60;;;;;;5065730;28;19995;-76
2022/04/10 09:16:25;;;;;;;;;;;22.00;41.20;;;;;;5063270;28;19908;-77
2022/04/10 09:18:54;;;;;;;;;;;22.20;40.20;;;;;;5054444;28;19911;-75
2022/04/10 09:21:30;;;;;;;;;;;22.40;41.00;;;;;;5069777;28;19905;-78
2022/04/10 09:23:57;;;;;;;;;;;22.20;39.70;;;;;;5067782;28;19909;-76
2022/04/10 09:26:23;;;;;;;;;;;22.00;40.20;;;;;;5062932;28;19919;-73
2022/04/10 09:28:50;;;;;;;;;;;22.00;39.80;;;;;;5056478;28;19912;-76
2022/04/10 09:31:25;;;;;;;;;;;21.90;40.80;;;;;;5058029;28;19916;-75
2022/04/10 09:33:52;;;;;;;;;;;21.90;40.20;;;;;;5062051;28;20014;-75
2022/04/10 09:36:27;;;;;;;;;;;21.90;41.80;;;;;;5065040;28;19912;-75
2022/04/10 09:38:53;;;;;;;;;;;21.90;41.20;;;;;;5066894;28;19954;-73
2022/04/10 09:41:20;;;;;;;;;;;21.90;41.80;;;;;;5058229;28;19912;-76
2022/04/10 09:43:46;;;;;;;;;;;21.90;41.20;;;;;;5060841;28;19916;-76
2022/04/10 09:46:12;;;;;;;;;;;22.00;41.10;;;;;;5065862;28;19909;-74
2022/04/10 09:48:38;;;;;;;;;;;21.90;40.50;;;;;;5065010;28;19919;-77
2022/04/10 09:51:05;;;;;;;;;;;21.90;40.90;;;;;;5061353;28;19908;-74
2022/04/10 09:53:32;;;;;;;;;;;21.90;41.20;;;;;;5061721;28;19909;-75
2022/04/10 09:56:02;;;;;;;;;;;21.90;40.60;;;;;;5054595;28;19944;-76
2022/04/10 09:58:28;;;;;;;;;;;21.90;40.60;;;;;;5080449;28;19908;-73
2022/04/10 10:00:54;;;;;;;;;;;21.90;39.90;;;;;;5066542;28;19901;-77
2022/04/10 10:03:24;;;;;;;;;;;21.70;39.30;;;;;;5061550;28;19958;-73
2022/04/10 10:05:50;;;;;;;;;;;21.70;39.40;;;;;;5057777;28;19908;-76
2022/04/10 10:08:16;;;;;;;;;;;21.80;39.70;;;;;;5072312;28;19920;-75
2022/04/10 10:10:42;;;;;;;;;;;21.80;39.40;;;;;;5067344;28;19951;-76
2022/04/10 10:13:08;;;;;;;;;;;21.90;39.10;;;;;;5054257;28;19948;-75
2022/04/10 10:15:36;;;;;;;;;;;22.00;39.50;;;;;;5056102;28;19905;-77
2022/04/10 10:18:03;;;;;;;;;;;22.10;39.50;;;;;;5061747;28;20369;-77
2022/04/10 10:20:29;;;;;;;;;;;22.20;39.40;;;;;;5071624;28;19917;-79
2022/04/10 10:22:55;;;;;;;;;;;22.30;38.70;;;;;;5068410;28;19955;-72
2022/04/10 10:25:27;;;;;;;;;;;22.20;40.00;;;;;;5091438;22;20165;-76
2022/04/10 10:27:53;;;;;;;;;;;22.20;39.00;;;;;;5081935;28;19927;-75
2022/04/10 10:30:24;;;;;;;;;;;22.10;39.30;;;;;;5083237;28;19908;-75
2022/04/10 10:32:55;;;;;;;;;;;22.10;38.90;;;;;;5080614;28;20002;-75
2022/04/10 10:35:31;;;;;;;;;;;22.10;40.00;;;;;;5071177;28;19916;-77
2022/04/10 10:37:57;;;;;;;;;;;22.10;39.50;;;;;;5079822;28;19908;-76
2022/04/10 10:40:22;;;;;;;;;;;22.10;39.60;;;;;;5080880;28;19908;-75
2022/04/10 10:42:49;;;;;;;;;;;22.10;40.80;;;;;;5080748;28;20010;-76
2022/04/10 10:45:33;;;;;;;;;;;22.10;40.10;;;;;;5088081;28;19915;-76
2022/04/10 10:48:23;;;;;;;;;;;22.10;40.90;;;;;;5081200;28;19908;-80
2022/04/10 10:50:59;;;;;;;;;;;22.10;41.00;;;;;;5065541;28;20302;-76
2022/04/10 10:53:44;;;;;;;;;;;22.10;40.20;;;;;;5071727;28;19908;-78
2022/04/10 10:56:18;;;;;;;;;;;22.00;40.30;;;;;;5088386;28;19973;-76
2022/04/10 10:58:44;;;;;;;;;;;22.00;40.40;;;;;;5084582;28;20380;-77
2022/04/10 11:01:17;;;;;;;;;;;22.10;41.40;;;;;;5092751;28;20383;-78
2022/04/10 11:03:59;;;;;;;;;;;22.00;40.50;;;;;;5085696;28;20267;-75
2022/04/10 11:06:24;;;;;;;;;;;22.10;40.90;;;;;;5084415;28;19916;-77
2022/04/10 11:08:50;;;;;;;;;;;22.10;40.70;;;;;;5078303;28;20303;-77
2022/04/10 11:11:19;;;;;;;;;;;22.10;40.30;;;;;;5082754;28;19915;-77
2022/04/10 11:13:46;;;;;;;;;;;22.10;40.20;;;;;;5085103;28;19998;-76
2022/04/10 11:16:13;;;;;;;;;;;22.10;39.80;;;;;;5088738;28;19909;-75
2022/04/10 11:18:42;;;;;;;;;;;22.10;40.00;;;;;;5089853;28;19905;-75
2022/04/10 11:21:09;;;;;;;;;;;22.10;40.80;;;;;;5086856;28;19919;-74
2022/04/10 11:23:39;;;;;;;;;;;22.10;40.80;;;;;;5084448;28;19908;-80
2022/04/10 11:26:08;;;;;;;;;;;22.10;40.60;;;;;;5088337;28;19923;-75
2022/04/10 11:28:56;;;;;;;;;;;22.10;41.80;;;;;;5089133;28;20412;-75
2022/04/10 11:31:27;;;;;;;;;;;22.00;40.50;;;;;;5093470;28;20375;-74
2022/04/10 11:33:55;;;;;;;;;;;22.00;40.50;;;;;;5083522;28;19908;-75
2022/04/10 11:36:20;;;;;;;;;;;22.10;41.70;;;;;;5097399;28;19949;-74
2022/04/10 11:39:04;;;;;;;;;;;22.00;41.20;;;;;;5091260;28;19908;-74
2022/04/10 11:41:30;;;;;;;;;;;22.00;40.60;;;;;;5088647;28;19939;-74
2022/04/10 11:43:56;;;;;;;;;;;22.00;41.30;;;;;;5087731;28;19962;-76
2022/04/10 11:46:22;;;;;;;;;;;22.00;41.70;;;;;;5085421;28;19908;-75
2022/04/10 11:48:48;;;;;;;;;;;21.90;41.70;;;;;;5084611;28;20282;-75
2022/04/10 11:51:13;;;;;;;;;;;22.00;41.20;;;;;;5083904;28;19988;-76
2022/04/10 11:53:39;;;;;;;;;;;21.90;42.30;;;;;;5089189;28;20279;-77
2022/04/10 11:56:05;;;;;;;;;;;21.90;41.00;;;;;;5087943;28;19915;-76
2022/04/10 11:58:34;;;;;;;;;;;21.90;42.00;;;;;;5080590;28;20325;-77
2022/04/10 12:01:01;;;;;;;;;;;21.90;41.50;;;;;;5091440;28;20309;-75
2022/04/10 12:03:29;;;;;;;;;;;21.90;40.10;;;;;;5089288;28;19912;-78
2022/04/10 12:05:55;;;;;;;;;;;21.90;40.10;;;;;;5095687;28;20351;-76
2022/04/10 12:08:23;;;;;;;;;;;21.90;41.10;;;;;;5093983;28;19912;-78
2022/04/10 12:10:55;;;;;;;;;;;21.80;41.80;;;;;;5092538;28;19904;-76
2022/04/10 12:13:21;;;;;;;;;;;21.90;41.00;;;;;;5094104;28;19904;-76
2022/04/10 12:15:57;;;;;;;;;;;21.90;40.30;;;;;;5077642;28;20211;-74
2022/04/10 12:18:22;;;;;;;;;;;21.90;40.90;;;;;;5085179;28;20422;-75
2022/04/10 12:20:56;;;;;;;;;;;21.90;41.00;;;;;;5093564;28;20014;-75
2022/04/10 12:23:24;;;;;;;;;;;21.90;41.80;;;;;;5084731;28;19908;-78
2022/04/10 12:25:50;;;;;;;;;;;21.90;41.00;;;;;;5073592;28;19924;-77
2022/04/10 12:28:17;;;;;;;;;;;21.90;41.70;;;;;;5073686;28;19931;-78
2022/04/10 12:30:42;;;;;;;;;;;21.80;40.70;;;;;;5071901;28;19905;-77
2022/04/10 12:33:09;;;;;;;;;;;21.80;40.80;;;;;;5078057;28;19904;-78
2022/04/10 12:35:38;;;;;;;;;;;21.80;41.00;;;;;;5083870;28;19904;-78
2022/04/10 12:38:04;;;;;;;;;;;21.80;40.70;;;;;;5098597;28;19904;-83
2022/04/10 12:40:30;;;;;;;;;;;21.80;41.30;;;;;;5075424;28;19943;-82
2022/04/10 12:43:02;;;;;;;;;;;21.80;40.80;;;;;;5077360;28;19908;-80
2022/04/10 12:45:29;;;;;;;;;;;21.80;41.10;;;;;;5074159;28;19939;-81
2022/04/10 12:47:55;;;;;;;;;;;21.80;40.70;;;;;;5076070;28;19916;-80
2022/04/10 12:50:22;;;;;;;;;;;21.80;40.70;;;;;;5078715;28;19918;-80
2022/04/10 12:52:48;;;;;;;;;;;21.80;41.00;;;;;;5078455;28;19912;-80
2022/04/10 12:55:14;;;;;;;;;;;21.80;40.90;;;;;;5079754;28;19908;-80
2022/04/10 12:57:42;;;;;;;;;;;21.80;41.40;;;;;;5096190;28;19908;-80
2022/04/10 13:00:07;;;;;;;;;;;21.80;41.30;;;;;;5085099;28;19908;-81
2022/04/10 13:02:36;;;;;;;;;;;21.80;41.80;;;;;;5091628;28;19908;-82
2022/04/10 13:05:03;;;;;;;;;;;21.80;41.80;;;;;;5087684;28;19931;-83
2022/04/10 13:07:29;;;;;;;;;;;21.80;41.70;;;;;;5086378;28;19912;-81
2022/04/10 13:10:01;;;;;;;;;;;21.80;42.10;;;;;;5073654;28;19919;-81
2022/04/10 13:12:27;;;;;;;;;;;21.80;41.80;;;;;;5077142;28;19959;-80
2022/04/10 13:14:53;;;;;;;;;;;21.80;42.30;;;;;;5077364;28;20276;-81
2022/04/10 13:17:18;;;;;;;;;;;21.80;42.50;;;;;;5075118;28;19997;-80
2022/04/10 13:19:44;;;;;;;;;;;21.80;42.50;;;;;;5072682;28;19973;-79
2022/04/10 13:22:10;;;;;;;;;;;21.80;42.70;;;;;;5074992;28;19908;-79
2022/04/10 13:24:35;;;;;;;;;;;21.80;42.30;;;;;;5074573;28;19913;-83
2022/04/10 13:27:02;;;;;;;;;;;21.80;42.50;;;;;;5074004;28;19919;-80
2022/04/10 13:29:28;;;;;;;;;;;21.80;42.00;;;;;;5077887;28;19908;-80
2022/04/10 13:31:53;;;;;;;;;;;21.80;42.10;;;;;;5092119;28;19911;-79
2022/04/10 13:34:19;;;;;;;;;;;21.70;41.80;;;;;;5092127;28;20359;-81
2022/04/10 13:36:44;;;;;;;;;;;21.70;41.50;;;;;;5090542;28;19912;-80
2022/04/10 13:39:10;;;;;;;;;;;21.70;41.40;;;;;;5078777;28;19975;-78
2022/04/10 13:41:35;;;;;;;;;;;21.70;41.00;;;;;;5075030;28;19915;-79
2022/04/10 13:44:01;;;;;;;;;;;21.70;41.00;;;;;;5084410;28;19908;-77
2022/04/10 13:46:27;;;;;;;;;;;21.60;40.80;;;;;;5078619;28;19919;-77
2022/04/10 13:48:52;;;;;;;;;;;21.60;40.80;;;;;;5072644;28;19908;-79
2022/04/10 13:51:18;;;;;;;;;;;21.60;40.90;;;;;;5076085;28;19962;-80
2022/04/10 13:53:44;;;;;;;;;;;21.60;40.90;;;;;;5085753;28;20264;-80
2022/04/10 13:56:09;;;;;;;;;;;21.60;40.90;;;;;;5090478;28;20434;-78
2022/04/10 13:58:35;;;;;;;;;;;21.60;41.10;;;;;;5092004;28;19944;-80
2022/04/10 14:01:00;;;;;;;;;;;21.60;41.20;;;;;;5080662;28;20339;-79
2022/04/10 14:03:26;;;;;;;;;;;21.60;40.70;;;;;;5082298;28;19915;-80
2022/04/10 14:05:51;;;;;;;;;;;21.40;40.00;;;;;;5093931;28;19999;-82
2022/04/10 14:08:17;;;;;;;;;;;21.50;40.70;;;;;;5093748;28;20029;-78
2022/04/10 14:10:43;;;;;;;;;;;21.40;40.30;;;;;;5082468;28;19904;-78
2022/04/10 14:13:08;;;;;;;;;;;21.40;41.30;;;;;;5076589;28;19908;-79
2022/04/10 14:15:34;;;;;;;;;;;21.50;40.60;;;;;;5082263;28;19990;-77
2022/04/10 14:18:00;;;;;;;;;;;21.40;39.50;;;;;;5091287;28;19914;-77